الصفحة الرئيسية
METAR-TAF:

METAR-TAF

مطار :

Narrabri, أستراليا

دائرة عرض: 30-19-09S, خط طول: 149-49-38E, ارتفاع: 240 متر

مراقبة الطقس الحالي

تاريخ ووقت الإصدار 29 دقيقة قبل الساعة 06:00UTC
ريح 5 عقدة من الجنوب/الجنوب الشرقي, الاتجاه يتراوح بين الشرق/الجنوب الشرقي و الجنوب
درجة الحرارة 24°درجة مئوية
الرطوبة 36%
ضغط 1016 hPa
الرؤية 10 كم أو أكثر

METAR: YNBR 060600Z AUTO 16005KT 110V180 9999 // NCD 24/08 Q1016

زمن: 16:29 (06:29 UTC)


TAF: مفقودة

أرصاد الطقس والتوقعات من أكثر من 4000 مطار (تقارير الطقس للمطار METAR والتنبؤ بالطقس بالمطارTAF).

المحطات المتاحة هي النقط الصفراء والحمراء على الخريطة.

حرك المؤشر فوق النقطة لمعرفة اسم المحطة.

ثم انقر لمعرفة أرصاد وتوقعات الطقس.

لتغيير الخارطة: اضغط على الأزرار الخضراء مع رمز الصليب الأسود للتكبير. على الزر الأخضر مع شرطة للتصغير، أو على الأسهم الخضراء للخرائط المجاورة.


METAR-TAF: